Terminal Aerodrome Forecast
Issued by NWS Sterling, VA

Current Version | Previous Version | Graphics & Text | Print | Product List | Glossary On
Versions: 1 2 3 4 5 6 7 8 9 10 11 12 13 14 15 16 17 18 19 20 21 22 23 24 25
000
FTUS41 KLWX 052100 AAA
TAFIAD
TAF AMD
KIAD 052100Z 0521/0624 02006KT P6SM SCT015 BKN035
     FM060100 02006KT 6SM -SHRA OVC015
     FM060200 01005KT 6SM -SHRA OVC010
     FM060700 36006KT 2SM SHRA OVC008
     FM062200 35008KT 2SM BR OVC015=

USA.gov is the U.S. government's official web portal to all federal, state and local government web resources and services.